sensor_id;sensor_type;location;lat;lon;timestamp;temperature;humidity
8269;DHT22;4174;48.304;16.364;2023-03-14T00:00:13;10.60;99.90
8269;DHT22;4174;48.304;16.364;2023-03-14T00:06:16;10.50;99.90
8269;DHT22;4174;48.304;16.364;2023-03-14T00:12:18;10.20;99.90
8269;DHT22;4174;48.304;16.364;2023-03-14T00:18:22;10.30;99.90
8269;DHT22;4174;48.304;16.364;2023-03-14T00:24:26;10.00;99.90
8269;DHT22;4174;48.304;16.364;2023-03-14T00:30:29;9.90;99.90
8269;DHT22;4174;48.304;16.364;2023-03-14T00:36:33;9.90;99.90
8269;DHT22;4174;48.304;16.364;2023-03-14T00:42:37;10.00;99.90
8269;DHT22;4174;48.304;16.364;2023-03-14T00:48:41;10.20;99.90
8269;DHT22;4174;48.304;16.364;2023-03-14T00:54:46;10.30;99.90
8269;DHT22;4174;48.304;16.364;2023-03-14T01:00:50;10.20;99.90
8269;DHT22;4174;48.304;16.364;2023-03-14T01:06:54;10.10;99.90
8269;DHT22;4174;48.304;16.364;2023-03-14T01:12:57;10.10;99.90
8269;DHT22;4174;48.304;16.364;2023-03-14T01:19:01;10.20;99.90
8269;DHT22;4174;48.304;16.364;2023-03-14T01:25:09;10.20;99.90
8269;DHT22;4174;48.304;16.364;2023-03-14T01:31:11;10.20;99.90
8269;DHT22;4174;48.304;16.364;2023-03-14T01:37:14;10.20;99.90
8269;DHT22;4174;48.304;16.364;2023-03-14T01:43:18;10.30;99.90
8269;DHT22;4174;48.304;16.364;2023-03-14T01:49:25;10.20;99.90
8269;DHT22;4174;48.304;16.364;2023-03-14T01:55:31;10.30;99.90
8269;DHT22;4174;48.304;16.364;2023-03-14T02:01:34;10.30;99.90
8269;DHT22;4174;48.304;16.364;2023-03-14T02:07:41;10.30;99.90
8269;DHT22;4174;48.304;16.364;2023-03-14T02:13:43;10.30;99.90
8269;DHT22;4174;48.304;16.364;2023-03-14T02:20:00;10.60;99.90
8269;DHT22;4174;48.304;16.364;2023-03-14T02:26:06;10.60;99.90
8269;DHT22;4174;48.304;16.364;2023-03-14T02:32:09;10.60;99.90
8269;DHT22;4174;48.304;16.364;2023-03-14T02:38:32;10.60;99.90
8269;DHT22;4174;48.304;16.364;2023-03-14T02:44:33;10.40;99.90
8269;DHT22;4174;48.304;16.364;2023-03-14T02:50:37;10.30;99.90
8269;DHT22;4174;48.304;16.364;2023-03-14T02:56:40;10.00;99.90
8269;DHT22;4174;48.304;16.364;2023-03-14T03:02:44;9.90;99.90
8269;DHT22;4174;48.304;16.364;2023-03-14T03:08:47;9.80;99.90
8269;DHT22;4174;48.304;16.364;2023-03-14T03:14:51;9.70;99.90
8269;DHT22;4174;48.304;16.364;2023-03-14T03:20:55;9.50;99.90
8269;DHT22;4174;48.304;16.364;2023-03-14T03:26:58;9.50;99.90
8269;DHT22;4174;48.304;16.364;2023-03-14T03:33:01;9.30;99.90
8269;DHT22;4174;48.304;16.364;2023-03-14T03:39:05;9.10;99.90
8269;DHT22;4174;48.304;16.364;2023-03-14T03:45:10;9.20;99.90
8269;DHT22;4174;48.304;16.364;2023-03-14T03:51:14;9.30;99.90
8269;DHT22;4174;48.304;16.364;2023-03-14T03:57:17;9.30;99.90
8269;DHT22;4174;48.304;16.364;2023-03-14T04:03:20;9.40;99.90
8269;DHT22;4174;48.304;16.364;2023-03-14T04:09:24;9.40;99.90
8269;DHT22;4174;48.304;16.364;2023-03-14T04:15:28;9.30;99.90
8269;DHT22;4174;48.304;16.364;2023-03-14T04:21:31;9.50;99.90
8269;DHT22;4174;48.304;16.364;2023-03-14T04:27:35;9.40;99.90
8269;DHT22;4174;48.304;16.364;2023-03-14T04:33:40;9.50;99.90
8269;DHT22;4174;48.304;16.364;2023-03-14T04:39:44;9.20;99.90
8269;DHT22;4174;48.304;16.364;2023-03-14T04:45:48;9.20;99.90
8269;DHT22;4174;48.304;16.364;2023-03-14T04:51:52;9.20;99.90
8269;DHT22;4174;48.304;16.364;2023-03-14T04:57:56;9.50;99.90
8269;DHT22;4174;48.304;16.364;2023-03-14T05:04:00;9.40;99.90
8269;DHT22;4174;48.304;16.364;2023-03-14T05:10:05;9.70;99.90
8269;DHT22;4174;48.304;16.364;2023-03-14T05:16:10;9.80;99.90
8269;DHT22;4174;48.304;16.364;2023-03-14T05:22:12;9.90;99.90
8269;DHT22;4174;48.304;16.364;2023-03-14T05:28:16;9.90;99.90
8269;DHT22;4174;48.304;16.364;2023-03-14T05:34:20;10.10;99.90
8269;DHT22;4174;48.304;16.364;2023-03-14T05:40:25;10.40;99.90
8269;DHT22;4174;48.304;16.364;2023-03-14T05:46:29;10.40;99.90
8269;DHT22;4174;48.304;16.364;2023-03-14T05:52:32;10.60;99.90
8269;DHT22;4174;48.304;16.364;2023-03-14T05:58:36;10.70;99.90
8269;DHT22;4174;48.304;16.364;2023-03-14T06:04:40;10.80;99.90
8269;DHT22;4174;48.304;16.364;2023-03-14T06:10:44;10.90;99.90
8269;DHT22;4174;48.304;16.364;2023-03-14T06:16:47;10.90;99.90
8269;DHT22;4174;48.304;16.364;2023-03-14T06:22:51;10.80;99.90
8269;DHT22;4174;48.304;16.364;2023-03-14T06:28:55;10.80;99.90
8269;DHT22;4174;48.304;16.364;2023-03-14T06:34:59;11.10;99.90
8269;DHT22;4174;48.304;16.364;2023-03-14T06:41:03;11.10;99.90
8269;DHT22;4174;48.304;16.364;2023-03-14T06:47:05;11.30;99.90
8269;DHT22;4174;48.304;16.364;2023-03-14T06:53:09;11.50;99.90
8269;DHT22;4174;48.304;16.364;2023-03-14T06:59:13;11.50;99.90
8269;DHT22;4174;48.304;16.364;2023-03-14T07:05:17;11.70;99.90
8269;DHT22;4174;48.304;16.364;2023-03-14T07:11:20;12.00;99.90
8269;DHT22;4174;48.304;16.364;2023-03-14T07:17:23;13.30;99.90
8269;DHT22;4174;48.304;16.364;2023-03-14T07:23:27;14.30;99.90
8269;DHT22;4174;48.304;16.364;2023-03-14T07:29:31;14.60;99.90
8269;DHT22;4174;48.304;16.364;2023-03-14T07:35:35;14.50;99.90
8269;DHT22;4174;48.304;16.364;2023-03-14T07:41:39;13.70;99.90
8269;DHT22;4174;48.304;16.364;2023-03-14T07:47:43;13.70;99.90
8269;DHT22;4174;48.304;16.364;2023-03-14T07:53:47;13.50;99.90
8269;DHT22;4174;48.304;16.364;2023-03-14T07:59:51;13.80;99.90
8269;DHT22;4174;48.304;16.364;2023-03-14T08:05:55;13.80;99.90
8269;DHT22;4174;48.304;16.364;2023-03-14T08:11:59;13.80;99.90
8269;DHT22;4174;48.304;16.364;2023-03-14T08:18:02;14.00;99.90
8269;DHT22;4174;48.304;16.364;2023-03-14T08:24:06;14.30;99.90
8269;DHT22;4174;48.304;16.364;2023-03-14T08:30:12;14.60;99.90
8269;DHT22;4174;48.304;16.364;2023-03-14T08:36:14;14.70;99.90
8269;DHT22;4174;48.304;16.364;2023-03-14T08:42:18;14.70;99.90
8269;DHT22;4174;48.304;16.364;2023-03-14T08:48:22;14.70;99.90
8269;DHT22;4174;48.304;16.364;2023-03-14T08:54:26;14.80;99.90
8269;DHT22;4174;48.304;16.364;2023-03-14T09:00:29;14.80;99.90
8269;DHT22;4174;48.304;16.364;2023-03-14T09:06:33;14.70;99.90
8269;DHT22;4174;48.304;16.364;2023-03-14T09:12:37;14.70;99.90
8269;DHT22;4174;48.304;16.364;2023-03-14T09:18:41;14.60;99.90
8269;DHT22;4174;48.304;16.364;2023-03-14T09:24:44;14.60;99.90
8269;DHT22;4174;48.304;16.364;2023-03-14T09:30:48;14.80;99.90
8269;DHT22;4174;48.304;16.364;2023-03-14T09:36:52;14.80;99.90
8269;DHT22;4174;48.304;16.364;2023-03-14T09:42:56;14.90;99.90
8269;DHT22;4174;48.304;16.364;2023-03-14T09:48:59;14.90;99.90
8269;DHT22;4174;48.304;16.364;2023-03-14T09:55:04;14.80;99.90
8269;DHT22;4174;48.304;16.364;2023-03-14T10:01:08;14.90;99.90
8269;DHT22;4174;48.304;16.364;2023-03-14T10:07:13;14.90;99.90
8269;DHT22;4174;48.304;16.364;2023-03-14T10:13:18;14.80;99.90
8269;DHT22;4174;48.304;16.364;2023-03-14T10:19:23;14.70;99.90
8269;DHT22;4174;48.304;16.364;2023-03-14T10:25:28;14.60;99.90
8269;DHT22;4174;48.304;16.364;2023-03-14T10:31:46;14.70;99.90
8269;DHT22;4174;48.304;16.364;2023-03-14T10:37:34;14.70;99.90
8269;DHT22;4174;48.304;16.364;2023-03-14T10:43:37;14.70;99.90
8269;DHT22;4174;48.304;16.364;2023-03-14T10:49:41;14.60;99.90
8269;DHT22;4174;48.304;16.364;2023-03-14T10:55:45;14.40;99.90
8269;DHT22;4174;48.304;16.364;2023-03-14T11:08:31;14.30;99.90
8269;DHT22;4174;48.304;16.364;2023-03-14T11:14:50;13.90;99.90
8269;DHT22;4174;48.304;16.364;2023-03-14T11:27:23;13.70;99.90
8269;DHT22;4174;48.304;16.364;2023-03-14T11:33:31;13.50;99.90
8269;DHT22;4174;48.304;16.364;2023-03-14T11:39:39;13.30;99.90
8269;DHT22;4174;48.304;16.364;2023-03-14T11:45:42;13.30;99.90
8269;DHT22;4174;48.304;16.364;2023-03-14T11:51:46;13.40;99.90
8269;DHT22;4174;48.304;16.364;2023-03-14T11:57:48;13.30;99.90
8269;DHT22;4174;48.304;16.364;2023-03-14T12:04:01;13.10;99.90
8269;DHT22;4174;48.304;16.364;2023-03-14T12:10:03;12.90;99.90
8269;DHT22;4174;48.304;16.364;2023-03-14T12:16:41;13.10;99.90
8269;DHT22;4174;48.304;16.364;2023-03-14T12:22:29;13.00;99.90
8269;DHT22;4174;48.304;16.364;2023-03-14T12:28:32;13.10;99.90
8269;DHT22;4174;48.304;16.364;2023-03-14T12:34:41;13.00;99.90
8269;DHT22;4174;48.304;16.364;2023-03-14T12:40:58;12.80;99.90
8269;DHT22;4174;48.304;16.364;2023-03-14T12:54:06;12.80;99.90
8269;DHT22;4174;48.304;16.364;2023-03-14T13:00:21;12.60;99.90
8269;DHT22;4174;48.304;16.364;2023-03-14T13:12:54;12.60;99.90
8269;DHT22;4174;48.304;16.364;2023-03-14T13:19:14;12.60;99.90
8269;DHT22;4174;48.304;16.364;2023-03-14T13:25:19;12.70;99.90
8269;DHT22;4174;48.304;16.364;2023-03-14T13:31:23;12.70;99.90
8269;DHT22;4174;48.304;16.364;2023-03-14T13:37:26;12.50;99.90
8269;DHT22;4174;48.304;16.364;2023-03-14T13:43:29;12.30;99.90
8269;DHT22;4174;48.304;16.364;2023-03-14T13:49:33;12.40;99.90
8269;DHT22;4174;48.304;16.364;2023-03-14T13:55:38;12.40;99.90
8269;DHT22;4174;48.304;16.364;2023-03-14T14:01:44;12.20;99.90
8269;DHT22;4174;48.304;16.364;2023-03-14T14:07:48;12.20;99.90
8269;DHT22;4174;48.304;16.364;2023-03-14T14:13:51;12.20;99.90
8269;DHT22;4174;48.304;16.364;2023-03-14T14:19:54;12.30;99.90
8269;DHT22;4174;48.304;16.364;2023-03-14T14:25:57;12.20;99.90
8269;DHT22;4174;48.304;16.364;2023-03-14T14:32:15;12.30;99.90
8269;DHT22;4174;48.304;16.364;2023-03-14T14:38:19;12.70;99.90
8269;DHT22;4174;48.304;16.364;2023-03-14T14:44:28;12.70;99.90
8269;DHT22;4174;48.304;16.364;2023-03-14T14:50:36;12.80;99.90
8269;DHT22;4174;48.304;16.364;2023-03-14T14:56:44;12.80;99.90
8269;DHT22;4174;48.304;16.364;2023-03-14T15:02:46;12.80;99.90
8269;DHT22;4174;48.304;16.364;2023-03-14T15:08:50;12.80;99.90
8269;DHT22;4174;48.304;16.364;2023-03-14T15:14:54;12.80;99.90
8269;DHT22;4174;48.304;16.364;2023-03-14T15:20:58;13.00;99.90
8269;DHT22;4174;48.304;16.364;2023-03-14T15:27:02;12.90;99.90
8269;DHT22;4174;48.304;16.364;2023-03-14T15:33:06;13.00;99.90
8269;DHT22;4174;48.304;16.364;2023-03-14T15:39:09;13.00;99.90
8269;DHT22;4174;48.304;16.364;2023-03-14T15:45:13;13.30;99.90
8269;DHT22;4174;48.304;16.364;2023-03-14T15:51:17;13.30;99.90
8269;DHT22;4174;48.304;16.364;2023-03-14T15:57:20;13.30;99.90
8269;DHT22;4174;48.304;16.364;2023-03-14T16:03:24;13.30;99.90
8269;DHT22;4174;48.304;16.364;2023-03-14T16:09:28;13.20;99.90
8269;DHT22;4174;48.304;16.364;2023-03-14T16:15:32;13.00;99.90
8269;DHT22;4174;48.304;16.364;2023-03-14T16:21:36;12.90;99.90
8269;DHT22;4174;48.304;16.364;2023-03-14T16:27:40;12.90;99.90
8269;DHT22;4174;48.304;16.364;2023-03-14T16:33:43;12.90;99.90
8269;DHT22;4174;48.304;16.364;2023-03-14T16:39:47;12.80;99.90
8269;DHT22;4174;48.304;16.364;2023-03-14T16:45:51;12.70;99.90
8269;DHT22;4174;48.304;16.364;2023-03-14T16:51:55;12.70;99.90
8269;DHT22;4174;48.304;16.364;2023-03-14T16:57:59;12.70;99.90
8269;DHT22;4174;48.304;16.364;2023-03-14T17:04:02;12.70;99.90
8269;DHT22;4174;48.304;16.364;2023-03-14T17:10:07;12.50;99.90
8269;DHT22;4174;48.304;16.364;2023-03-14T17:16:11;12.40;99.90
8269;DHT22;4174;48.304;16.364;2023-03-14T17:22:14;12.10;99.90
8269;DHT22;4174;48.304;16.364;2023-03-14T17:28:18;12.00;99.90
8269;DHT22;4174;48.304;16.364;2023-03-14T17:34:20;12.10;99.90
8269;DHT22;4174;48.304;16.364;2023-03-14T17:40:23;12.10;99.90
8269;DHT22;4174;48.304;16.364;2023-03-14T17:46:27;12.20;99.90
8269;DHT22;4174;48.304;16.364;2023-03-14T17:52:31;12.30;99.90
8269;DHT22;4174;48.304;16.364;2023-03-14T17:58:34;12.10;99.90
8269;DHT22;4174;48.304;16.364;2023-03-14T18:04:37;12.10;99.90
8269;DHT22;4174;48.304;16.364;2023-03-14T18:10:40;12.00;99.90
8269;DHT22;4174;48.304;16.364;2023-03-14T18:16:43;11.90;99.90
8269;DHT22;4174;48.304;16.364;2023-03-14T18:22:47;11.80;99.90
8269;DHT22;4174;48.304;16.364;2023-03-14T18:28:50;11.70;99.90
8269;DHT22;4174;48.304;16.364;2023-03-14T18:34:53;11.50;99.90
8269;DHT22;4174;48.304;16.364;2023-03-14T18:41:05;11.40;99.90
8269;DHT22;4174;48.304;16.364;2023-03-14T18:47:08;11.30;99.90
8269;DHT22;4174;48.304;16.364;2023-03-14T18:53:11;11.20;99.90
8269;DHT22;4174;48.304;16.364;2023-03-14T18:59:14;11.00;99.90
8269;DHT22;4174;48.304;16.364;2023-03-14T19:05:18;11.10;99.90
8269;DHT22;4174;48.304;16.364;2023-03-14T19:11:22;11.50;99.90
8269;DHT22;4174;48.304;16.364;2023-03-14T19:17:26;11.80;99.90
8269;DHT22;4174;48.304;16.364;2023-03-14T19:23:30;11.80;99.90
8269;DHT22;4174;48.304;16.364;2023-03-14T19:29:32;11.70;99.90
8269;DHT22;4174;48.304;16.364;2023-03-14T19:35:37;11.30;99.90
8269;DHT22;4174;48.304;16.364;2023-03-14T19:41:41;11.30;99.90
8269;DHT22;4174;48.304;16.364;2023-03-14T19:47:45;11.20;99.90
8269;DHT22;4174;48.304;16.364;2023-03-14T19:53:50;11.20;99.90
8269;DHT22;4174;48.304;16.364;2023-03-14T19:59:52;11.10;99.90
8269;DHT22;4174;48.304;16.364;2023-03-14T20:05:56;10.90;99.90
8269;DHT22;4174;48.304;16.364;2023-03-14T20:12:03;10.90;99.90
8269;DHT22;4174;48.304;16.364;2023-03-14T20:18:06;10.80;99.90
8269;DHT22;4174;48.304;16.364;2023-03-14T20:24:09;10.70;99.90
8269;DHT22;4174;48.304;16.364;2023-03-14T20:30:14;10.80;99.90
8269;DHT22;4174;48.304;16.364;2023-03-14T20:36:19;10.60;99.90
8269;DHT22;4174;48.304;16.364;2023-03-14T20:42:22;10.60;99.90
8269;DHT22;4174;48.304;16.364;2023-03-14T20:48:26;10.50;99.90
8269;DHT22;4174;48.304;16.364;2023-03-14T20:54:29;10.50;99.90
8269;DHT22;4174;48.304;16.364;2023-03-14T21:00:32;10.40;99.90
8269;DHT22;4174;48.304;16.364;2023-03-14T21:06:35;10.40;99.90
8269;DHT22;4174;48.304;16.364;2023-03-14T21:12:39;10.20;99.90
8269;DHT22;4174;48.304;16.364;2023-03-14T21:18:44;10.20;99.90
8269;DHT22;4174;48.304;16.364;2023-03-14T21:24:48;10.20;99.90
8269;DHT22;4174;48.304;16.364;2023-03-14T21:30:51;10.20;99.90
8269;DHT22;4174;48.304;16.364;2023-03-14T21:36:55;10.10;99.90
8269;DHT22;4174;48.304;16.364;2023-03-14T21:42:59;10.00;99.90
8269;DHT22;4174;48.304;16.364;2023-03-14T21:49:03;9.90;99.90
8269;DHT22;4174;48.304;16.364;2023-03-14T21:55:08;9.90;99.90
8269;DHT22;4174;48.304;16.364;2023-03-14T22:01:12;9.80;99.90
8269;DHT22;4174;48.304;16.364;2023-03-14T22:07:17;9.70;99.90
8269;DHT22;4174;48.304;16.364;2023-03-14T22:13:21;9.70;99.90
8269;DHT22;4174;48.304;16.364;2023-03-14T22:19:23;9.60;99.90
8269;DHT22;4174;48.304;16.364;2023-03-14T22:25:26;9.50;99.90
8269;DHT22;4174;48.304;16.364;2023-03-14T22:31:30;9.60;99.90
8269;DHT22;4174;48.304;16.364;2023-03-14T22:37:34;9.50;99.90
8269;DHT22;4174;48.304;16.364;2023-03-14T22:43:37;9.60;99.90
8269;DHT22;4174;48.304;16.364;2023-03-14T22:49:41;9.50;99.90
8269;DHT22;4174;48.304;16.364;2023-03-14T22:55:44;9.40;99.90
8269;DHT22;4174;48.304;16.364;2023-03-14T23:01:49;9.50;99.90
8269;DHT22;4174;48.304;16.364;2023-03-14T23:07:52;9.50;99.90
8269;DHT22;4174;48.304;16.364;2023-03-14T23:13:55;9.30;99.90
8269;DHT22;4174;48.304;16.364;2023-03-14T23:19:59;9.40;99.90
8269;DHT22;4174;48.304;16.364;2023-03-14T23:26:04;9.30;99.40
8269;DHT22;4174;48.304;16.364;2023-03-14T23:32:07;9.30;99.50
8269;DHT22;4174;48.304;16.364;2023-03-14T23:38:11;9.30;98.80
8269;DHT22;4174;48.304;16.364;2023-03-14T23:44:15;9.40;98.70
8269;DHT22;4174;48.304;16.364;2023-03-14T23:50:19;9.40;98.40
8269;DHT22;4174;48.304;16.364;2023-03-14T23:56:22;9.30;98.30
